Lahaina, Hawaii
Current Conditions -  °F | °C
As of 1:54 PM on Wednesday 26 Nov 2014 (Local Time) from PHOG Reporting Station
Few Clouds Few Clouds  
Wind Chill: 81°   Ceiling: Unl
Heat Index: 82°   Visibility: 10mi
Dew Point: 62°   Wind: 17mph
Humidity: 52%   Direction: 50°NE
Pressure: 30.02"   Gusts: NA
Location:  20.88°N, 156.67°W
Report Text: PHOG 262354Z 05015KT 10SM FEW045 27/17 A3002 RMK AO2 SLP170 T02720167 10278 20228 58028 $
Loading
Personal Weather Stations






























Interactive Weather Map New forecast layout! Learn more

10-Day Weather Forecast

Advertisements
Track Severe Weather on mobile